Time;durP1;ratioP1;P1;durP2;ratioP2;P2;SDS_P1;SDS_P2;PMS_P1;PMS_P2;Temp;Humidity;BMP_temperature;BMP_pressure;BME280_temperature;BME280_humidity;BME280_pressure;Samples;Min_cycle;Max_cycle;Signal;HPM_P1;HPM_P2
2023/03/26 00:00:15;;;;;;;16.80;3.40;;;8.70;99.90;;;;;;6276008;22;20212;-80
2023/03/26 00:02:42;;;;;;;8.50;3.33;;;8.70;99.90;;;;;;6275486;22;20496;-81
2023/03/26 00:05:13;;;;;;;11.47;3.37;;;8.70;99.90;;;;;;6276572;22;20410;-82
2023/03/26 00:07:41;;;;;;;14.10;4.13;;;8.70;99.90;;;;;;6276303;22;20502;-81
2023/03/26 00:10:08;;;;;;;12.60;4.03;;;8.80;99.90;;;;;;6276004;22;20172;-81
2023/03/26 00:12:35;;;;;;;14.07;3.83;;;8.80;99.90;;;;;;6276241;22;20239;-81
2023/03/26 00:15:03;;;;;;;8.60;3.30;;;8.80;99.90;;;;;;6276905;22;20274;-81
2023/03/26 00:17:32;;;;;;;6.83;2.30;;;8.70;99.90;;;;;;6276372;22;20183;-81
2023/03/26 00:19:59;;;;;;;8.13;3.07;;;8.70;99.90;;;;;;6276992;22;20179;-81
2023/03/26 00:22:26;;;;;;;9.13;2.40;;;8.70;99.90;;;;;;6276294;22;20171;-80
2023/03/26 00:24:55;;;;;;;10.60;2.90;;;8.70;99.90;;;;;;6276344;22;20208;-81
2023/03/26 00:27:22;;;;;;;10.23;2.40;;;8.70;99.90;;;;;;6277028;22;20169;-81
2023/03/26 00:29:49;;;;;;;8.13;2.00;;;8.60;99.90;;;;;;6275736;22;20177;-81
2023/03/26 00:32:16;;;;;;;9.30;2.20;;;8.60;99.90;;;;;;6276584;22;20454;-81
2023/03/26 00:34:45;;;;;;;10.27;2.87;;;8.60;99.90;;;;;;6276210;22;20200;-81
2023/03/26 00:37:13;;;;;;;10.73;2.53;;;8.60;99.90;;;;;;6276106;22;20195;-81
2023/03/26 00:39:41;;;;;;;7.93;2.57;;;8.50;99.90;;;;;;6275986;22;20240;-81
2023/03/26 00:42:08;;;;;;;7.03;2.33;;;8.50;99.90;;;;;;6276300;22;20276;-83
2023/03/26 00:44:35;;;;;;;16.57;3.30;;;8.50;99.90;;;;;;6275163;22;20644;-81
2023/03/26 00:47:02;;;;;;;9.93;2.53;;;8.40;99.90;;;;;;6276596;22;20168;-82
2023/03/26 00:49:30;;;;;;;6.47;2.43;;;8.40;99.90;;;;;;6275979;22;20215;-79
2023/03/26 00:52:00;;;;;;;10.17;3.83;;;8.40;99.90;;;;;;6274636;22;20169;-79
2023/03/26 00:54:27;;;;;;;8.27;2.30;;;8.40;99.90;;;;;;6247007;22;20954;-82
2023/03/26 00:56:54;;;;;;;5.03;1.93;;;8.30;99.90;;;;;;6210121;22;20235;-81
2023/03/26 00:59:22;;;;;;;5.47;1.90;;;8.30;99.90;;;;;;6276163;22;20454;-79
2023/03/26 01:01:50;;;;;;;3.67;1.60;;;8.30;99.90;;;;;;6275432;22;20200;-81
2023/03/26 01:04:29;;;;;;;4.70;1.80;;;8.30;99.90;;;;;;6275749;22;20550;-82
2023/03/26 01:06:58;;;;;;;4.37;1.40;;;8.20;99.90;;;;;;6275141;22;20280;-80
2023/03/26 01:09:32;;;;;;;3.47;1.63;;;8.20;99.90;;;;;;6275980;22;20196;-82
2023/03/26 01:12:00;;;;;;;14.27;3.60;;;8.20;99.90;;;;;;6275566;22;20564;-82
2023/03/26 01:14:28;;;;;;;12.27;3.80;;;8.20;99.90;;;;;;6275970;22;20196;-82
2023/03/26 01:16:57;;;;;;;13.07;2.80;;;8.20;99.90;;;;;;6275728;22;20554;-81
2023/03/26 01:19:29;;;;;;;9.20;2.30;;;8.20;99.90;;;;;;6274386;22;20173;-82
2023/03/26 01:21:58;;;;;;;9.43;2.47;;;8.20;99.90;;;;;;6276189;22;20248;-81
2023/03/26 01:24:26;;;;;;;11.33;2.70;;;8.10;99.90;;;;;;6276021;22;20172;-82
2023/03/26 01:27:16;;;;;;;14.40;3.63;;;8.10;99.90;;;;;;6275434;22;20173;-81
2023/03/26 01:29:51;;;;;;;10.10;2.63;;;8.20;99.90;;;;;;6275451;22;20226;-82
2023/03/26 01:32:29;;;;;;;7.90;2.30;;;8.20;99.90;;;;;;6276007;22;20717;-81
2023/03/26 01:35:07;;;;;;;12.97;3.70;;;8.20;99.90;;;;;;6275287;22;20406;-81
2023/03/26 01:37:41;;;;;;;9.53;2.97;;;8.20;99.90;;;;;;6276632;22;20215;-81
2023/03/26 01:40:18;;;;;;;7.90;2.97;;;8.20;99.90;;;;;;6275170;22;20164;-79
2023/03/26 01:42:51;;;;;;;6.07;2.67;;;8.20;99.90;;;;;;6276374;22;20203;-80
2023/03/26 01:45:23;;;;;;;10.07;2.60;;;8.20;99.90;;;;;;6276045;22;20193;-80
2023/03/26 01:47:50;;;;;;;6.53;3.07;;;8.20;99.90;;;;;;6274787;22;20316;-80
2023/03/26 01:50:17;;;;;;;7.90;2.30;;;8.20;99.90;;;;;;6275898;22;20264;-81
2023/03/26 01:52:44;;;;;;;9.87;2.80;;;8.20;99.90;;;;;;6275232;22;20172;-81
2023/03/26 01:55:13;;;;;;;5.27;1.83;;;8.20;99.90;;;;;;6275250;22;20196;-82
2023/03/26 01:57:51;;;;;;;6.93;1.73;;;8.20;99.90;;;;;;6275790;22;20172;-80
2023/03/26 02:00:26;;;;;;;7.27;2.20;;;8.10;99.90;;;;;;6274893;22;20211;-81
2023/03/26 02:03:16;;;;;;;8.23;2.00;;;8.10;99.90;;;;;;6274885;22;20171;-81
2023/03/26 02:05:49;;;;;;;8.20;2.83;;;8.10;99.90;;;;;;6275174;22;20236;-81
2023/03/26 02:08:21;;;;;;;4.30;1.77;;;8.00;99.90;;;;;;6274674;22;20204;-81
2023/03/26 02:10:54;;;;;;;7.03;2.63;;;8.00;99.90;;;;;;6275692;22;20476;-81
2023/03/26 02:13:20;;;;;;;4.60;2.13;;;7.90;99.90;;;;;;6275544;22;20161;-81
2023/03/26 02:15:59;;;;;;;15.63;3.50;;;7.90;99.90;;;;;;6273933;22;20653;-81
2023/03/26 02:18:35;;;;;;;6.97;2.67;;;7.80;99.90;;;;;;6275579;22;20587;-82
2023/03/26 02:21:04;;;;;;;9.57;3.00;;;7.70;99.90;;;;;;6274727;22;20199;-80
2023/03/26 02:23:34;;;;;;;8.13;2.10;;;7.70;99.90;;;;;;6274535;22;20169;-81
2023/03/26 02:26:05;;;;;;;8.30;3.23;;;7.70;99.90;;;;;;6275862;22;20169;-81
2023/03/26 02:28:32;;;;;;;4.50;2.30;;;7.60;99.90;;;;;;6275025;22;20189;-81
2023/03/26 02:31:00;;;;;;;11.57;3.20;;;7.60;99.90;;;;;;6274694;22;20168;-81
2023/03/26 02:33:28;;;;;;;8.13;2.90;;;7.60;99.90;;;;;;6275167;22;20169;-80
2023/03/26 02:35:58;;;;;;;13.20;4.00;;;7.60;99.90;;;;;;6274193;22;20218;-79
2023/03/26 02:38:25;;;;;;;11.57;3.60;;;7.60;99.90;;;;;;6274724;22;20687;-80
2023/03/26 02:40:53;;;;;;;9.67;2.83;;;7.50;99.90;;;;;;6274980;22;20169;-79
2023/03/26 02:43:21;;;;;;;9.40;3.17;;;7.50;99.90;;;;;;6273673;22;20175;-79
2023/03/26 02:45:49;;;;;;;10.87;3.73;;;7.50;99.90;;;;;;6275092;22;20173;-80
2023/03/26 02:48:15;;;;;;;9.87;4.00;;;7.50;99.90;;;;;;6274910;22;20199;-80
2023/03/26 02:50:43;;;;;;;10.47;4.00;;;7.50;99.90;;;;;;6273644;22;20172;-80
2023/03/26 02:53:10;;;;;;;7.80;3.33;;;7.50;99.90;;;;;;6274889;22;20195;-80
2023/03/26 02:55:37;;;;;;;6.67;3.63;;;7.50;99.90;;;;;;6274409;22;20308;-79
2023/03/26 02:58:05;;;;;;;13.83;4.20;;;7.50;99.90;;;;;;6274861;22;20834;-80
2023/03/26 03:00:33;;;;;;;12.47;4.50;;;7.40;99.90;;;;;;6277699;22;20703;-79
2023/03/26 03:03:03;;;;;;;12.77;4.87;;;7.40;99.90;;;;;;6277833;22;20231;-80
2023/03/26 03:05:31;;;;;;;14.13;4.73;;;7.40;99.90;;;;;;6277315;22;20617;-78
2023/03/26 03:07:58;;;;;;;12.27;5.30;;;7.30;99.90;;;;;;6277885;22;20219;-80
2023/03/26 03:10:26;;;;;;;10.40;5.03;;;7.30;99.90;;;;;;6277896;22;20576;-80
2023/03/26 03:12:54;;;;;;;10.43;4.30;;;7.20;99.90;;;;;;6277113;22;20195;-79
2023/03/26 03:15:21;;;;;;;9.80;3.63;;;7.20;99.90;;;;;;6278041;22;20184;-79
2023/03/26 03:17:49;;;;;;;5.77;3.23;;;7.20;99.90;;;;;;6277084;22;20211;-80
2023/03/26 03:20:16;;;;;;;11.17;4.37;;;7.10;99.90;;;;;;6277691;22;20607;-81
2023/03/26 03:22:44;;;;;;;11.70;5.17;;;7.10;99.90;;;;;;6278069;22;20244;-81
2023/03/26 03:25:13;;;;;;;15.10;5.83;;;7.10;99.90;;;;;;6278246;22;20175;-79
2023/03/26 03:27:41;;;;;;;12.67;5.40;;;7.20;99.90;;;;;;6277705;22;20272;-80
2023/03/26 03:30:11;;;;;;;14.17;5.90;;;7.20;99.90;;;;;;6278751;22;20207;-81
2023/03/26 03:32:38;;;;;;;9.20;5.27;;;7.20;99.90;;;;;;6277789;22;20195;-81
2023/03/26 03:35:07;;;;;;;12.40;5.37;;;7.20;99.90;;;;;;6278019;22;20608;-81
2023/03/26 03:37:34;;;;;;;10.93;5.37;;;7.20;99.90;;;;;;6278393;22;20645;-82
2023/03/26 03:40:01;;;;;;;10.97;5.27;;;7.20;99.90;;;;;;6277481;22;20207;-80
2023/03/26 03:42:28;;;;;;;13.40;5.93;;;7.20;99.90;;;;;;6277930;22;20207;-79
2023/03/26 03:44:55;;;;;;;17.87;6.77;;;7.20;99.90;;;;;;6277687;22;20214;-80
2023/03/26 03:47:21;;;;;;;11.97;7.17;;;7.20;99.90;;;;;;6276349;22;20181;-79
2023/03/26 03:49:50;;;;;;;12.87;6.10;;;7.20;99.90;;;;;;6278074;22;20499;-79
2023/03/26 03:52:18;;;;;;;18.20;8.10;;;7.20;99.90;;;;;;6277580;22;20169;-79
2023/03/26 03:54:45;;;;;;;19.90;7.53;;;7.20;99.90;;;;;;6276828;22;20251;-79
2023/03/26 03:57:14;;;;;;;18.63;8.00;;;7.20;99.90;;;;;;6277962;22;20196;-79
2023/03/26 03:59:41;;;;;;;20.93;7.83;;;7.20;99.90;;;;;;6277511;22;20412;-79
2023/03/26 04:02:08;;;;;;;20.03;7.70;;;7.20;99.90;;;;;;6276605;22;20589;-80
2023/03/26 04:04:36;;;;;;;16.80;7.00;;;7.20;99.90;;;;;;6278002;22;20629;-81
2023/03/26 04:07:03;;;;;;;16.03;7.50;;;7.20;99.90;;;;;;6278187;22;20168;-79
2023/03/26 04:09:31;;;;;;;11.50;6.80;;;7.20;99.90;;;;;;6275995;22;20598;-79
2023/03/26 04:11:58;;;;;;;13.73;6.20;;;7.20;99.90;;;;;;6276274;22;20569;-80
2023/03/26 04:14:25;;;;;;;18.20;7.93;;;7.20;99.90;;;;;;6275752;22;20678;-80
2023/03/26 04:16:52;;;;;;;20.47;7.93;;;7.20;99.90;;;;;;6275042;22;20200;-79
2023/03/26 04:19:19;;;;;;;14.33;7.40;;;7.30;99.90;;;;;;6275899;22;20189;-79
2023/03/26 04:21:46;;;;;;;18.90;8.10;;;7.30;99.90;;;;;;6275177;22;20204;-82
2023/03/26 04:24:13;;;;;;;17.30;8.17;;;7.30;99.90;;;;;;6276556;22;20431;-80
2023/03/26 04:26:41;;;;;;;14.47;7.83;;;7.30;99.90;;;;;;6276475;22;20241;-81
2023/03/26 04:29:11;;;;;;;17.37;9.53;;;7.30;99.90;;;;;;6275479;22;20177;-79
2023/03/26 04:31:38;;;;;;;20.37;8.60;;;7.30;99.90;;;;;;6276505;22;20165;-79
2023/03/26 04:34:12;;;;;;;21.83;8.10;;;7.40;99.90;;;;;;6276427;22;20255;-81
2023/03/26 04:36:41;;;;;;;17.10;7.93;;;7.40;99.90;;;;;;6275772;22;20161;-81
2023/03/26 04:39:12;;;;;;;16.53;8.27;;;7.40;99.90;;;;;;6276183;22;20172;-81
2023/03/26 04:41:41;;;;;;;25.27;9.30;;;7.40;99.90;;;;;;6276223;22;20172;-83
2023/03/26 04:44:08;;;;;;;26.53;9.37;;;7.50;99.90;;;;;;6276145;22;20269;-82
2023/03/26 04:46:34;;;;;;;24.13;10.73;;;7.50;99.90;;;;;;6276462;22;20167;-79
2023/03/26 04:49:01;;;;;;;25.77;10.83;;;7.60;99.90;;;;;;6275831;22;20227;-82
2023/03/26 04:51:36;;;;;;;25.37;10.77;;;7.60;99.90;;;;;;6275431;22;20186;-81
2023/03/26 04:54:04;;;;;;;24.50;10.77;;;7.60;99.90;;;;;;6276167;22;20171;-81
2023/03/26 04:56:40;;;;;;;29.33;10.63;;;7.60;99.90;;;;;;6276416;22;20227;-80
2023/03/26 04:59:12;;;;;;;21.23;9.33;;;7.50;99.90;;;;;;6275428;22;20175;-80
2023/03/26 05:01:40;;;;;;;19.90;9.17;;;7.60;99.90;;;;;;6276359;22;20232;-84
2023/03/26 05:04:07;;;;;;;25.63;8.67;;;7.60;99.90;;;;;;6275247;22;20169;-82
2023/03/26 05:06:36;;;;;;;24.60;11.10;;;7.60;99.90;;;;;;6276488;22;20199;-80
2023/03/26 05:09:04;;;;;;;27.67;10.30;;;7.60;99.90;;;;;;6275837;22;20517;-81
2023/03/26 05:11:31;;;;;;;25.73;11.60;;;7.60;99.90;;;;;;6276081;22;20173;-80
2023/03/26 05:13:57;;;;;;;18.37;9.37;;;7.60;99.90;;;;;;6276034;22;20240;-81
2023/03/26 05:16:26;;;;;;;21.03;10.47;;;7.70;99.90;;;;;;6276325;22;20231;-81
2023/03/26 05:18:53;;;;;;;26.30;11.70;;;7.60;99.90;;;;;;6275149;22;20223;-80
2023/03/26 05:21:21;;;;;;;20.70;10.30;;;7.60;99.90;;;;;;6276171;22;20475;-81
2023/03/26 05:23:48;;;;;;;23.23;10.90;;;7.60;99.90;;;;;;6275160;22;20586;-81
2023/03/26 05:26:15;;;;;;;18.33;9.87;;;7.70;99.90;;;;;;6275258;22;20201;-79
2023/03/26 05:28:42;;;;;;;20.90;9.40;;;7.70;99.90;;;;;;6276212;22;20478;-82
2023/03/26 05:31:10;;;;;;;18.83;9.47;;;7.70;99.90;;;;;;6276056;22;20260;-81
2023/03/26 05:33:38;;;;;;;21.87;8.93;;;7.70;99.90;;;;;;6275578;22;20481;-81
2023/03/26 05:36:08;;;;;;;18.20;8.73;;;7.60;99.90;;;;;;6275260;22;20191;-81
2023/03/26 05:38:35;;;;;;;21.40;8.53;;;7.70;99.90;;;;;;6275829;22;20428;-80
2023/03/26 05:41:05;;;;;;;20.37;8.70;;;7.70;99.90;;;;;;6274984;22;20169;-81
2023/03/26 05:43:32;;;;;;;19.37;7.53;;;7.70;99.90;;;;;;6275692;22;20173;-82
2023/03/26 05:45:59;;;;;;;20.17;8.83;;;7.70;99.90;;;;;;6274887;22;20227;-81
2023/03/26 05:48:26;;;;;;;19.47;7.67;;;7.70;99.90;;;;;;6274519;22;20168;-81
2023/03/26 05:50:56;;;;;;;16.50;6.77;;;7.70;99.90;;;;;;6274857;22;20240;-82
2023/03/26 05:53:25;;;;;;;20.23;7.37;;;7.70;99.90;;;;;;6276043;22;20447;-81
2023/03/26 05:55:56;;;;;;;26.77;8.33;;;7.70;99.90;;;;;;6275395;22;20275;-82
2023/03/26 05:58:23;;;;;;;21.17;8.10;;;7.70;99.90;;;;;;6275470;22;20223;-81
2023/03/26 06:00:57;;;;;;;19.57;7.40;;;7.70;99.90;;;;;;6275403;22;20223;-82
2023/03/26 06:03:24;;;;;;;26.63;6.53;;;7.70;99.90;;;;;;6276082;22;20168;-81
2023/03/26 06:05:51;;;;;;;19.13;6.07;;;7.70;99.90;;;;;;6275556;22;20204;-83
2023/03/26 06:08:19;;;;;;;23.47;7.03;;;7.70;99.90;;;;;;6274662;22;20362;-81
2023/03/26 06:10:46;;;;;;;18.77;6.90;;;7.70;99.90;;;;;;6275277;22;20173;-81
2023/03/26 06:13:15;;;;;;;23.03;7.10;;;7.70;99.90;;;;;;6275601;22;20411;-80
2023/03/26 06:15:41;;;;;;;17.73;6.17;;;7.80;99.90;;;;;;6275287;22;20912;-83
2023/03/26 06:18:09;;;;;;;15.73;5.43;;;7.70;99.90;;;;;;6276333;22;20515;-81
2023/03/26 06:20:36;;;;;;;17.07;4.60;;;7.80;99.90;;;;;;6276703;22;20169;-82
2023/03/26 06:23:03;;;;;;;14.77;5.17;;;7.80;99.90;;;;;;6275566;22;20720;-84
2023/03/26 06:25:31;;;;;;;15.43;5.43;;;7.80;99.90;;;;;;6276075;22;20256;-83
2023/03/26 06:27:58;;;;;;;16.97;5.33;;;7.80;99.90;;;;;;6275804;22;20187;-82
2023/03/26 06:30:25;;;;;;;24.67;5.63;;;7.80;99.90;;;;;;6275896;22;20248;-83
2023/03/26 06:32:52;;;;;;;19.40;4.63;;;7.80;99.90;;;;;;6275762;22;20577;-83
2023/03/26 06:35:19;;;;;;;14.67;4.90;;;7.80;99.90;;;;;;6275716;22;20188;-82
2023/03/26 06:37:46;;;;;;;16.47;4.63;;;7.80;99.90;;;;;;6275902;22;20242;-84
2023/03/26 06:40:13;;;;;;;17.73;4.40;;;7.70;99.90;;;;;;6275913;22;20635;-82
2023/03/26 06:42:42;;;;;;;21.77;4.80;;;7.80;99.90;;;;;;6274391;22;20175;-83
2023/03/26 06:45:09;;;;;;;12.87;5.07;;;7.80;99.90;;;;;;6275438;22;20247;-82
2023/03/26 06:47:36;;;;;;;17.73;4.27;;;7.90;99.90;;;;;;6275548;22;20168;-86
2023/03/26 06:50:04;;;;;;;12.53;3.90;;;7.90;99.90;;;;;;6274881;22;20173;-81
2023/03/26 06:52:31;;;;;;;14.27;4.97;;;7.90;99.90;;;;;;6275033;22;20171;-82
2023/03/26 06:54:58;;;;;;;17.20;4.77;;;7.90;99.90;;;;;;6275554;22;20251;-80
2023/03/26 06:57:25;;;;;;;17.97;4.13;;;7.90;99.90;;;;;;6274599;22;20624;-81
2023/03/26 06:59:53;;;;;;;14.87;4.40;;;7.90;99.90;;;;;;6274918;22;20277;-83
2023/03/26 07:02:20;;;;;;;13.67;4.40;;;7.90;99.90;;;;;;6276227;22;20188;-82
2023/03/26 07:04:47;;;;;;;15.70;4.37;;;7.90;99.90;;;;;;6275113;22;20349;-80
2023/03/26 07:07:14;;;;;;;18.60;5.13;;;7.90;99.90;;;;;;6274723;22;20201;-80
2023/03/26 07:09:41;;;;;;;22.50;4.90;;;7.90;99.90;;;;;;6275191;22;20588;-81
2023/03/26 07:12:08;;;;;;;16.60;4.70;;;7.90;99.90;;;;;;6274898;22;20203;-80
2023/03/26 07:14:37;;;;;;;13.37;3.27;;;7.90;99.90;;;;;;6275309;22;20168;-81
2023/03/26 07:17:06;;;;;;;13.97;4.30;;;7.90;99.90;;;;;;6275362;22;20195;-82
2023/03/26 07:19:33;;;;;;;13.67;3.60;;;8.00;99.90;;;;;;6274517;22;20180;-80
2023/03/26 07:22:00;;;;;;;13.70;4.10;;;8.00;99.90;;;;;;6274644;22;20504;-82
2023/03/26 07:24:28;;;;;;;11.20;3.33;;;8.00;99.90;;;;;;6275138;22;20165;-81
2023/03/26 07:27:02;;;;;;;15.87;4.00;;;8.00;99.90;;;;;;6275376;22;20413;-82
2023/03/26 07:29:35;;;;;;;16.33;3.87;;;8.00;99.90;;;;;;6275385;22;20236;-81
2023/03/26 07:32:14;;;;;;;14.90;3.93;;;8.00;99.90;;;;;;6275077;22;20462;-82
2023/03/26 07:34:51;;;;;;;11.23;3.17;;;8.00;99.90;;;;;;6275524;22;20164;-82
2023/03/26 07:37:30;;;;;;;11.13;2.87;;;8.00;99.90;;;;;;6274949;22;20601;-81
2023/03/26 07:40:02;;;;;;;15.03;3.20;;;8.10;99.90;;;;;;6274995;22;20239;-82
2023/03/26 07:42:40;;;;;;;15.00;3.10;;;8.00;99.90;;;;;;6275460;22;20165;-82
2023/03/26 07:45:17;;;;;;;18.77;3.50;;;8.10;99.90;;;;;;6276535;22;20244;-83
2023/03/26 07:51:09;;;;;;;12.57;3.43;;;8.20;99.90;;;;;;6208803;22;20203;-82
2023/03/26 07:53:36;;;;;;;13.43;3.43;;;8.20;99.90;;;;;;6277597;22;20208;-81
2023/03/26 07:56:11;;;;;;;18.33;3.83;;;8.30;99.90;;;;;;6277801;22;20203;-82
2023/03/26 07:58:52;;;;;;;14.83;3.40;;;8.30;99.90;;;;;;6277311;22;20157;-83
2023/03/26 08:01:26;;;;;;;16.27;3.20;;;8.20;99.90;;;;;;6275767;22;20230;-82
2023/03/26 08:04:15;;;;;;;16.80;4.47;;;8.30;99.90;;;;;;6276675;22;20196;-83
2023/03/26 08:06:51;;;;;;;14.00;3.73;;;8.30;99.90;;;;;;6248437;22;20280;-80
2023/03/26 08:09:28;;;;;;;17.87;3.97;;;8.30;99.90;;;;;;6277198;22;20210;-81
2023/03/26 08:11:58;;;;;;;14.97;3.03;;;8.30;99.90;;;;;;6276777;22;20185;-81
2023/03/26 08:14:39;;;;;;;25.27;5.47;;;8.30;99.90;;;;;;6276103;22;20244;-79
2023/03/26 08:17:11;;;;;;;16.90;4.20;;;8.30;99.90;;;;;;6276045;22;20189;-81
2023/03/26 08:19:50;;;;;;;16.33;3.47;;;8.40;99.90;;;;;;6277289;22;20484;-81
2023/03/26 08:22:26;;;;;;;18.30;3.80;;;8.40;99.90;;;;;;6274641;22;20240;-80
2023/03/26 08:25:09;;;;;;;16.77;3.50;;;8.40;99.90;;;;;;6275848;22;20180;-80
2023/03/26 08:27:39;;;;;;;27.80;4.27;;;8.40;99.90;;;;;;6276729;22;20196;-80
2023/03/26 08:30:14;;;;;;;18.80;4.43;;;8.50;99.90;;;;;;6274986;22;20648;-80
2023/03/26 08:32:41;;;;;;;17.03;3.03;;;8.40;99.90;;;;;;6274075;22;20195;-80
2023/03/26 08:35:12;;;;;;;16.20;3.33;;;8.50;99.90;;;;;;6274092;22;20165;-79
2023/03/26 08:37:40;;;;;;;17.73;3.73;;;8.50;99.90;;;;;;6275803;22;20188;-80
2023/03/26 08:40:09;;;;;;;17.67;3.90;;;8.60;99.90;;;;;;6275357;22;20165;-79
2023/03/26 08:42:58;;;;;;;10.30;3.53;;;8.60;99.90;;;;;;6274328;22;20553;-79
2023/03/26 08:46:01;;;;;;;19.40;4.43;;;8.60;99.90;;;;;;6273425;22;20167;-77
2023/03/26 08:49:14;;;;;;;17.27;4.40;;;8.70;99.90;;;;;;6275020;22;20167;-80
2023/03/26 08:52:23;;;;;;;17.40;3.50;;;8.80;99.90;;;;;;6152158;23;20223;-81
2023/03/26 08:55:18;;;;;;;17.30;3.13;;;8.90;99.90;;;;;;6276473;22;20248;-78
2023/03/26 08:58:24;;;;;;;16.87;4.40;;;8.90;99.90;;;;;;6274574;22;20264;-80
2023/03/26 09:01:35;;;;;;;12.27;2.97;;;8.90;99.90;;;;;;6276235;22;20255;-81
2023/03/26 09:04:35;;;;;;;17.30;3.23;;;8.90;99.90;;;;;;6203441;22;20256;-81
2023/03/26 09:07:40;;;;;;;11.67;3.50;;;8.90;99.90;;;;;;6268572;22;20230;-80
2023/03/26 09:10:22;;;;;;;16.00;3.50;;;9.00;99.90;;;;;;6274398;22;20184;-81
2023/03/26 09:13:27;;;;;;;16.73;4.40;;;9.10;99.90;;;;;;6275521;22;20184;-79
2023/03/26 09:16:27;;;;;;;18.20;3.70;;;9.20;99.90;;;;;;6252125;22;20179;-79
2023/03/26 09:19:39;;;;;;;14.50;3.60;;;9.10;99.90;;;;;;6275776;22;20799;-78
2023/03/26 09:22:43;;;;;;;16.97;3.40;;;9.20;99.90;;;;;;6275033;22;20218;-80
2023/03/26 09:25:45;;;;;;;15.00;3.93;;;9.20;99.90;;;;;;6254450;22;20211;-80
2023/03/26 09:28:37;;;;;;;15.77;3.50;;;9.10;99.90;;;;;;6275908;22;20172;-79
2023/03/26 09:31:34;;;;;;;20.23;3.27;;;9.10;99.90;;;;;;6208722;22;20192;-79
2023/03/26 09:34:21;;;;;;;17.97;4.73;;;9.20;99.90;;;;;;6275473;22;20172;-79
2023/03/26 09:36:56;;;;;;;12.73;3.27;;;9.30;99.90;;;;;;6276208;22;20264;-78
2023/03/26 09:39:36;;;;;;;14.63;2.90;;;9.30;99.90;;;;;;6275228;22;20172;-83
2023/03/26 09:42:15;;;;;;;18.40;3.70;;;9.40;99.90;;;;;;6275637;22;20176;-79
2023/03/26 09:45:14;;;;;;;15.57;3.80;;;9.30;99.90;;;;;;6276578;22;20230;-77
2023/03/26 09:47:56;;;;;;;14.43;3.67;;;9.40;99.90;;;;;;6275522;22;20193;-78
2023/03/26 09:50:35;;;;;;;15.63;3.47;;;9.40;99.90;;;;;;6275390;22;20236;-78
2023/03/26 09:53:26;;;;;;;14.23;2.80;;;9.50;99.90;;;;;;6274114;22;20434;-77
2023/03/26 09:56:03;;;;;;;16.87;3.57;;;9.50;99.90;;;;;;6274876;22;20165;-81
2023/03/26 09:59:07;;;;;;;14.10;3.90;;;9.50;99.90;;;;;;6274939;22;20573;-80
2023/03/26 10:01:41;;;;;;;16.23;3.70;;;9.50;99.90;;;;;;6272091;22;20465;-79
2023/03/26 10:04:39;;;;;;;13.03;2.93;;;9.60;99.90;;;;;;6274969;22;20180;-79
2023/03/26 10:07:20;;;;;;;14.30;3.10;;;9.50;99.90;;;;;;6274655;22;20172;-80
2023/03/26 10:09:56;;;;;;;16.53;2.83;;;9.60;99.90;;;;;;6275469;22;20511;-81
2023/03/26 10:12:33;;;;;;;10.80;3.30;;;9.60;99.90;;;;;;6275797;22;20161;-80
2023/03/26 10:15:30;;;;;;;17.30;2.50;;;9.70;99.90;;;;;;6274729;22;20189;-81
2023/03/26 10:18:10;;;;;;;11.57;2.83;;;9.80;99.90;;;;;;6274856;22;20263;-81
2023/03/26 10:20:55;;;;;;;14.50;3.50;;;9.90;96.30;;;;;;6275040;22;20439;-78
2023/03/26 10:23:38;;;;;;;15.13;4.17;;;9.90;99.90;;;;;;6275819;22;20200;-81
2023/03/26 10:26:37;;;;;;;12.73;3.00;;;10.00;99.90;;;;;;6276189;22;20161;-81
2023/03/26 10:29:21;;;;;;;17.23;3.90;;;10.00;95.00;;;;;;6274732;22;20613;-82
2023/03/26 10:31:57;;;;;;;15.50;3.13;;;10.10;99.90;;;;;;6275891;22;20707;-80
2023/03/26 10:34:44;;;;;;;14.10;3.73;;;10.10;99.90;;;;;;6274863;22;20171;-78
2023/03/26 10:37:17;;;;;;;14.37;3.20;;;10.00;99.90;;;;;;6274565;22;20192;-80
2023/03/26 10:40:00;;;;;;;14.10;3.20;;;9.90;97.40;;;;;;6275885;22;20219;-80
2023/03/26 10:42:53;;;;;;;16.40;3.20;;;9.90;99.90;;;;;;6275343;22;20169;-83
2023/03/26 10:48:35;;;;;;;10.50;3.03;;;9.90;93.90;;;;;;6271604;22;20171;-81
2023/03/26 10:51:29;;;;;;;14.93;2.90;;;10.00;54.20;;;;;;6273630;22;20180;-80
2023/03/26 10:54:00;;;;;;;12.53;3.33;;;9.90;89.40;;;;;;6274347;22;20249;-82
2023/03/26 10:56:32;;;;;;;9.77;2.83;;;9.90;77.30;;;;;;6273815;22;20201;-80
2023/03/26 10:59:04;;;;;;;18.23;4.53;;;9.90;63.60;;;;;;6275708;22;20164;-80
2023/03/26 11:01:39;;;;;;;18.33;3.53;;;9.90;63.70;;;;;;6275367;22;20214;-81
2023/03/26 11:04:21;;;;;;;12.77;3.27;;;9.90;99.90;;;;;;6274834;22;20160;-79
2023/03/26 11:06:58;;;;;;;13.17;2.63;;;10.00;91.20;;;;;;6274707;22;20568;-80
2023/03/26 11:09:35;;;;;;;18.83;3.00;;;10.10;56.20;;;;;;6274630;22;20766;-79
2023/03/26 11:12:11;;;;;;;11.57;2.90;;;10.20;16.70;;;;;;6274513;22;20231;-80
2023/03/26 11:14:46;;;;;;;11.80;3.37;;;10.20;23.10;;;;;;6274839;22;20741;-78
2023/03/26 11:17:19;;;;;;;13.13;3.37;;;10.20;11.20;;;;;;6272409;22;20242;-78
2023/03/26 11:19:54;;;;;;;8.87;2.30;;;10.20;10.90;;;;;;6276121;22;20243;-79
2023/03/26 11:22:34;;;;;;;18.00;3.13;;;10.20;9.70;;;;;;6276383;22;20160;-77
2023/03/26 11:25:29;;;;;;;14.17;2.80;;;10.20;5.50;;;;;;6276199;22;20456;-79
2023/03/26 11:28:09;;;;;;;7.73;2.50;;;10.30;44.20;;;;;;6276103;22;20207;-77
2023/03/26 11:30:42;;;;;;;9.90;2.10;;;10.40;14.70;;;;;;6276963;22;20242;-80
2023/03/26 11:33:15;;;;;;;8.50;2.33;;;10.50;11.70;;;;;;6276387;22;20161;-80
2023/03/26 11:35:48;;;;;;;13.40;2.87;;;10.50;1.00;;;;;;6276506;22;20226;-76
2023/03/26 11:38:21;;;;;;;13.97;2.90;;;10.60;6.80;;;;;;6275518;22;20826;-81
2023/03/26 11:40:52;;;;;;;11.50;2.20;;;10.50;12.70;;;;;;6276696;22;20187;-79
2023/03/26 11:43:26;;;;;;;7.80;2.20;;;10.50;1.00;;;;;;6275688;22;20165;-78
2023/03/26 11:45:53;;;;;;;7.63;2.10;;;10.50;1.00;;;;;;6274798;22;20173;-78
2023/03/26 11:48:26;;;;;;;13.60;3.10;;;10.40;1.00;;;;;;6274640;22;20172;-78
2023/03/26 11:51:00;;;;;;;10.30;2.83;;;10.40;1.00;;;;;;6275277;22;20538;-76
2023/03/26 11:53:33;;;;;;;8.97;2.37;;;10.20;5.60;;;;;;6274375;22;20161;-78
2023/03/26 11:56:04;;;;;;;11.70;2.67;;;10.20;21.20;;;;;;6275308;22;20165;-78
2023/03/26 11:58:37;;;;;;;11.23;3.10;;;10.30;1.00;;;;;;6276332;22;20189;-78
2023/03/26 12:01:05;;;;;;;11.30;2.37;;;10.40;37.70;;;;;;6275448;22;20274;-78
2023/03/26 12:03:32;;;;;;;9.87;2.60;;;10.50;1.00;;;;;;6276637;22;20180;-78
2023/03/26 12:06:02;;;;;;;8.77;2.00;;;10.60;1.00;;;;;;6275679;22;20243;-78
2023/03/26 12:08:33;;;;;;;17.57;2.53;;;10.60;10.20;;;;;;6277655;22;20239;-79
2023/03/26 12:11:05;;;;;;;7.23;2.10;;;10.80;62.30;;;;;;6276669;22;20563;-78
2023/03/26 12:13:40;;;;;;;9.73;2.07;;;10.80;1.00;;;;;;6276574;22;20161;-78
2023/03/26 12:16:13;;;;;;;11.93;2.53;;;10.80;1.00;;;;;;6276699;22;20435;-79
2023/03/26 12:18:42;;;;;;;13.53;2.60;;;10.70;1.00;;;;;;6275971;22;20196;-76
2023/03/26 12:21:13;;;;;;;13.27;2.27;;;10.70;1.00;;;;;;6275934;22;20176;-81
2023/03/26 12:23:51;;;;;;;10.10;2.67;;;10.70;31.00;;;;;;6276874;22;20165;-79
2023/03/26 12:26:20;;;;;;;11.80;2.97;;;10.80;43.40;;;;;;6276298;22;20165;-80
2023/03/26 12:28:50;;;;;;;13.90;3.43;;;10.90;41.30;;;;;;6275168;22;20218;-77
2023/03/26 12:31:18;;;;;;;9.97;2.57;;;11.00;27.90;;;;;;6276034;22;20172;-78
2023/03/26 12:33:51;;;;;;;10.93;2.67;;;11.10;1.00;;;;;;6276453;22;20648;-77
2023/03/26 12:36:25;;;;;;;8.23;1.70;;;11.10;1.00;;;;;;6275128;22;20168;-78
2023/03/26 12:38:52;;;;;;;5.73;1.67;;;11.00;1.00;;;;;;6275694;22;20680;-78
2023/03/26 12:41:20;;;;;;;10.50;2.20;;;10.80;1.00;;;;;;6274972;22;20169;-80
2023/03/26 12:43:49;;;;;;;9.37;2.10;;;10.70;8.60;;;;;;6275923;22;20248;-79
2023/03/26 12:46:25;;;;;;;11.87;2.00;;;10.50;76.40;;;;;;6273645;22;20168;-82
2023/03/26 12:48:54;;;;;;;8.77;2.00;;;10.60;1.00;;;;;;6274347;22;20169;-79
2023/03/26 12:51:34;;;;;;;9.33;2.00;;;10.80;1.00;;;;;;6275303;22;20184;-78
2023/03/26 12:54:16;;;;;;;9.53;1.90;;;10.90;1.00;;;;;;6274724;22;20168;-77
2023/03/26 12:56:51;;;;;;;8.50;1.87;;;10.90;1.00;;;;;;6274657;22;20167;-78
2023/03/26 12:59:29;;;;;;;7.63;1.80;;;10.80;1.00;;;;;;6275179;22;20260;-77
2023/03/26 13:02:06;;;;;;;9.20;2.40;;;10.80;1.00;;;;;;6276022;22;20556;-77
2023/03/26 13:04:51;;;;;;;4.70;1.73;;;10.60;1.00;;;;;;6274229;22;20442;-82
2023/03/26 13:07:26;;;;;;;5.30;1.90;;;10.40;1.00;;;;;;6275819;22;20190;-78
2023/03/26 13:10:16;;;;;;;8.23;1.97;;;10.40;1.00;;;;;;6275062;22;20186;-79
2023/03/26 13:12:51;;;;;;;8.60;1.90;;;10.20;1.00;;;;;;6275588;22;20161;-77
2023/03/26 13:15:25;;;;;;;9.10;1.67;;;10.10;3.30;;;;;;6275438;22;20198;-78
2023/03/26 13:18:07;;;;;;;8.33;2.17;;;10.10;1.00;;;;;;6274277;22;20224;-81
2023/03/26 13:20:52;;;;;;;7.40;2.17;;;10.10;1.00;;;;;;6275157;22;20211;-78
2023/03/26 13:23:30;;;;;;;6.77;2.27;;;10.20;1.00;;;;;;6274362;22;20239;-79
2023/03/26 13:26:09;;;;;;;9.20;1.80;;;10.20;1.00;;;;;;6275974;22;20172;-77